Bloomingdale, Wisconsin
Current Conditions -  °F | °C
As of 9:14 AM on Monday 22 Dec 2014 (Local Time) from KY51 Reporting Station
Overcast Overcast  
Wind Chill: 26°   Ceiling: 700
Heat Index: 34°   Visibility: 3mi
Dew Point: 34°   Wind: 12mph
Humidity: 100%   Direction: 130°SE
Pressure: 29.75"   Gusts: NA
Location:  43.6744°N, 90.8807°W
Report Text: KY51 221514Z AUTO 13010KT 3SM BKN007 OVC026 01/01 A2975 RMK AO1 T00120012
Loading
Personal Weather Stations






























Interactive Weather Map New forecast layout! Learn more

10-Day Weather Forecast

Advertisements
Track Severe Weather on mobile